createdAt,value
2023-03-03T00:03:11.144Z,35.60
2023-03-03T00:08:11.911Z,37.00
2023-03-03T00:13:20.133Z,37.30
2023-03-03T00:18:29.923Z,34.33
2023-03-03T00:23:36.264Z,37.42
2023-03-03T00:28:46.381Z,37.88
2023-03-03T00:33:50.583Z,37.05
2023-03-03T00:38:51.720Z,38.75
2023-03-03T00:43:55.009Z,39.22
2023-03-03T00:48:55.648Z,38.28
2023-03-03T00:53:57.400Z,38.22
2023-03-03T00:58:59.549Z,37.42
2023-03-03T01:04:02.681Z,34.97
2023-03-03T01:09:03.430Z,36.30
2023-03-03T01:14:05.516Z,37.25
2023-03-03T01:19:06.183Z,36.17
2023-03-03T01:24:07.080Z,38.17
2023-03-03T01:29:09.108Z,37.33
2023-03-03T01:34:09.790Z,37.47
2023-03-03T01:39:12.275Z,35.33
2023-03-03T01:44:16.157Z,36.58
2023-03-03T01:49:21.613Z,37.13
2023-03-03T01:54:29.221Z,35.15
2023-03-03T01:59:35.352Z,32.65
2023-03-03T02:04:36.599Z,37.28
2023-03-03T02:09:45.995Z,34.58
2023-03-03T02:14:47.997Z,37.90
2023-03-03T02:19:55.675Z,34.75
2023-03-03T02:25:00.961Z,34.65
2023-03-03T02:30:20.810Z,35.25
2023-03-03T02:35:31.211Z,34.92
2023-03-03T02:40:37.267Z,36.80
2023-03-03T02:45:45.452Z,36.33
2023-03-03T02:50:46.126Z,32.88
2023-03-03T02:55:47.158Z,33.33
2023-03-03T03:00:50.421Z,32.55
2023-03-03T03:05:55.442Z,30.95
2023-03-03T03:10:59.173Z,30.80
2023-03-03T03:16:03.091Z,29.05
2023-03-03T03:21:07.919Z,29.55
2023-03-03T03:26:09.827Z,32.08
2023-03-03T03:31:12.022Z,29.35
2023-03-03T03:36:12.919Z,30.95
2023-03-03T03:41:15.018Z,32.13
2023-03-03T03:46:17.911Z,32.42
2023-03-03T03:51:18.784Z,29.13
2023-03-03T03:56:19.593Z,30.90
2023-03-03T04:01:26.522Z,30.05
2023-03-03T04:06:28.430Z,28.48
2023-03-03T04:11:30.081Z,27.88
2023-03-03T04:16:32.633Z,30.73
2023-03-03T04:21:33.751Z,29.83
2023-03-03T04:26:36.197Z,28.15
2023-03-03T04:31:41.601Z,28.40
2023-03-03T04:36:43.847Z,28.38
2023-03-03T04:41:44.582Z,26.05
2023-03-03T04:46:46.680Z,26.77
2023-03-03T04:51:47.523Z,27.10
2023-03-03T04:56:48.174Z,25.95
2023-03-03T05:01:51.159Z,24.67
2023-03-03T05:06:51.992Z,25.48
2023-03-03T05:11:52.744Z,26.90
2023-03-03T05:16:54.836Z,25.08
2023-03-03T05:21:55.528Z,24.35
2023-03-03T05:26:56.339Z,25.13
2023-03-03T05:31:58.431Z,23.98
2023-03-03T05:36:59.134Z,23.90
2023-03-03T05:42:00.243Z,24.23
2023-03-03T05:47:02.266Z,23.83
2023-03-03T05:52:03.429Z,24.52
2023-03-03T05:57:04.144Z,24.85
2023-03-03T06:02:06.259Z,24.83
2023-03-03T06:07:07.441Z,25.55
2023-03-03T06:12:08.552Z,26.42
2023-03-03T06:17:10.822Z,25.55
2023-03-03T06:22:11.509Z,25.60
2023-03-03T06:27:12.195Z,26.30
2023-03-03T06:32:14.382Z,27.83
2023-03-03T06:37:15.178Z,26.40
2023-03-03T06:42:15.890Z,27.25
2023-03-03T06:47:17.901Z,26.40
2023-03-03T06:52:23.798Z,25.08
2023-03-03T06:57:27.798Z,26.35
2023-03-03T07:02:29.866Z,25.33
2023-03-03T07:07:30.622Z,25.27
2023-03-03T07:12:31.960Z,25.25
2023-03-03T07:17:35.415Z,21.73
2023-03-03T07:22:36.105Z,23.67
2023-03-03T07:27:38.403Z,23.83
2023-03-03T07:32:43.154Z,23.05
2023-03-03T07:37:43.976Z,22.45
2023-03-03T07:42:44.909Z,21.75
2023-03-03T07:48:12.370Z,23.33
2023-03-03T07:53:22.833Z,21.75
2023-03-03T07:58:26.052Z,24.38
2023-03-03T08:03:28.271Z,21.92
2023-03-03T08:08:31.497Z,21.05
2023-03-03T08:13:38.910Z,20.35
2023-03-03T08:18:43.598Z,19.23
2023-03-03T08:23:44.820Z,18.02
2023-03-03T08:28:45.724Z,19.20
2023-03-03T08:33:48.196Z,18.30
2023-03-03T08:38:48.956Z,17.25
2023-03-03T08:43:49.736Z,17.58
2023-03-03T08:48:52.716Z,16.83
2023-03-03T08:53:53.475Z,16.35
2023-03-03T08:59:02.096Z,16.02
2023-03-03T09:04:05.135Z,15.27
2023-03-03T09:09:05.942Z,14.93
2023-03-03T09:14:11.948Z,13.25
2023-03-03T09:19:25.550Z,15.68
2023-03-03T09:24:28.610Z,14.60
2023-03-03T09:29:30.683Z,13.52
2023-03-03T09:34:40.754Z,12.95
2023-03-03T09:39:41.485Z,11.73
2023-03-03T09:44:58.792Z,11.68
2023-03-03T09:50:12.911Z,11.13
2023-03-03T09:55:27.437Z,11.30
2023-03-03T10:00:39.729Z,9.05
2023-03-03T10:05:50.114Z,9.57
2023-03-03T10:11:00.397Z,9.00
2023-03-03T10:16:22.157Z,8.57
2023-03-03T10:21:30.688Z,9.18
2023-03-03T10:27:12.347Z,8.75
2023-03-03T10:32:34.801Z,8.70
2023-03-03T10:37:52.906Z,8.55
2023-03-03T10:43:29.678Z,8.20
2023-03-03T10:48:51.410Z,8.55
2023-03-03T10:54:04.425Z,8.93
2023-03-03T10:59:23.778Z,7.88
2023-03-03T11:05:07.258Z,7.82
2023-03-03T11:10:31.502Z,8.20
2023-03-03T11:15:42.474Z,7.80
2023-03-03T11:20:52.657Z,6.65
2023-03-03T11:26:07.501Z,7.55
2023-03-03T11:31:20.522Z,7.53
2023-03-03T11:36:28.542Z,7.57
2023-03-03T11:41:37.628Z,7.97
2023-03-03T11:46:43.739Z,7.75
2023-03-03T11:51:52.779Z,7.45
2023-03-03T11:57:02.108Z,6.90
2023-03-03T12:02:15.499Z,6.53
2023-03-03T12:07:27.842Z,7.28
2023-03-03T12:12:34.652Z,7.70
2023-03-03T12:17:57.782Z,6.63
2023-03-03T12:23:13.154Z,6.68
2023-03-03T12:28:20.692Z,6.00
2023-03-03T12:33:30.097Z,5.63
2023-03-03T12:38:43.245Z,5.82
2023-03-03T12:43:58.081Z,4.13
2023-03-03T12:49:19.554Z,4.70
2023-03-03T12:54:40.130Z,3.80
2023-03-03T12:59:52.857Z,4.03
2023-03-03T13:05:00.290Z,4.28
2023-03-03T13:10:09.948Z,4.20
2023-03-03T13:15:18.357Z,4.47
2023-03-03T13:20:31.469Z,4.97
2023-03-03T13:25:44.379Z,4.63
2023-03-03T13:30:50.351Z,6.35
2023-03-03T13:35:55.945Z,6.93
2023-03-03T13:41:05.430Z,6.35
2023-03-03T13:46:16.288Z,6.15
2023-03-03T13:51:28.116Z,5.55
2023-03-03T13:56:48.892Z,5.72
2023-03-03T14:01:59.048Z,6.22
2023-03-03T14:07:08.083Z,6.20
2023-03-03T14:12:15.700Z,6.75
2023-03-03T14:17:30.018Z,8.50
2023-03-03T14:22:41.769Z,6.75
2023-03-03T14:28:05.516Z,6.50
2023-03-03T14:33:21.737Z,5.88
2023-03-03T14:38:25.472Z,6.57
2023-03-03T14:43:33.989Z,6.72
2023-03-03T14:48:52.144Z,6.82
2023-03-03T14:53:53.890Z,6.18
2023-03-03T14:58:56.424Z,7.28
2023-03-03T15:04:03.506Z,6.55
2023-03-03T15:09:35.661Z,7.20
2023-03-03T15:14:43.837Z,7.53
2023-03-03T15:20:06.565Z,6.93
2023-03-03T15:25:15.136Z,7.25
2023-03-03T15:30:26.100Z,6.57
2023-03-03T15:35:37.843Z,7.63
2023-03-03T15:40:48.897Z,6.38
2023-03-03T15:45:54.955Z,6.80
2023-03-03T15:51:07.717Z,8.15
2023-03-03T15:56:21.607Z,9.07
2023-03-03T16:01:33.580Z,8.85
2023-03-03T16:06:47.064Z,9.85
2023-03-03T16:11:53.233Z,9.95
2023-03-03T16:17:01.711Z,11.45
2023-03-03T16:22:30.070Z,11.32
2023-03-03T16:27:39.315Z,12.18
2023-03-03T16:32:45.239Z,13.68
2023-03-03T16:37:57.386Z,16.40
2023-03-03T16:43:04.961Z,15.15
2023-03-03T16:48:19.473Z,15.02
2023-03-03T16:53:32.300Z,15.52
2023-03-03T16:58:46.586Z,14.02
2023-03-03T17:03:58.782Z,17.55
2023-03-03T17:09:23.356Z,17.83
2023-03-03T17:14:48.600Z,14.50
2023-03-03T17:20:01.207Z,16.63
2023-03-03T17:25:13.579Z,15.38
2023-03-03T17:30:22.312Z,14.60
2023-03-03T17:35:38.694Z,17.45
2023-03-03T17:40:53.526Z,16.48
2023-03-03T17:46:00.022Z,18.95
2023-03-03T17:51:36.176Z,19.08
2023-03-03T17:56:46.687Z,20.63
2023-03-03T18:02:01.607Z,21.17
2023-03-03T18:07:22.482Z,19.27
2023-03-03T18:12:36.888Z,20.17
2023-03-03T18:17:50.167Z,21.00
2023-03-03T18:22:52.474Z,21.23
2023-03-03T18:28:23.254Z,21.65
2023-03-03T18:33:43.840Z,22.52
2023-03-03T18:38:47.909Z,23.30
2023-03-03T18:43:56.381Z,23.65
2023-03-03T18:49:02.049Z,21.35
2023-03-03T18:54:22.477Z,22.10
2023-03-03T18:59:49.160Z,24.23
2023-03-03T19:04:55.698Z,22.25
2023-03-03T19:10:01.512Z,21.25
2023-03-03T19:15:03.563Z,22.25
2023-03-03T19:20:12.910Z,22.40
2023-03-03T19:25:22.402Z,19.33
2023-03-03T19:30:45.989Z,20.00
2023-03-03T19:36:08.432Z,22.10
2023-03-03T19:41:22.887Z,18.35
2023-03-03T19:46:50.698Z,19.63
2023-03-03T19:51:59.907Z,18.70
2023-03-03T19:57:03.530Z,19.92
2023-03-03T20:02:28.023Z,19.77
2023-03-03T20:07:35.113Z,19.50
2023-03-03T20:12:50.682Z,19.52
2023-03-03T20:18:24.937Z,19.33
2023-03-03T20:23:32.889Z,18.50
2023-03-03T20:29:08.337Z,20.10
2023-03-03T20:34:15.363Z,19.27
2023-03-03T20:39:27.563Z,19.80
2023-03-03T20:44:41.101Z,18.73
2023-03-03T20:49:59.958Z,19.02
2023-03-03T20:55:10.885Z,19.98
2023-03-03T21:00:18.014Z,20.08
2023-03-03T21:05:20.706Z,19.73
2023-03-03T21:10:25.076Z,21.88
2023-03-03T21:15:31.156Z,21.33
2023-03-03T21:20:34.135Z,22.55
2023-03-03T21:25:52.178Z,23.13
2023-03-03T21:31:13.367Z,22.30
2023-03-03T21:36:15.719Z,24.63
2023-03-03T21:41:18.898Z,25.25
2023-03-03T21:46:21.037Z,24.27
2023-03-03T21:51:24.279Z,26.92
2023-03-03T21:56:26.319Z,25.73
2023-03-03T22:01:27.031Z,27.48
2023-03-03T22:06:29.189Z,25.85
2023-03-03T22:11:31.228Z,28.63
2023-03-03T22:16:32.023Z,27.88
2023-03-03T22:21:32.898Z,27.73
2023-03-03T22:26:35.584Z,24.73
2023-03-03T22:31:36.368Z,27.85
2023-03-03T22:36:37.066Z,29.83
2023-03-03T22:41:39.099Z,25.88
2023-03-03T22:46:39.946Z,26.80
2023-03-03T22:51:40.685Z,28.58
2023-03-03T22:56:42.931Z,23.52
2023-03-03T23:01:43.695Z,21.58
2023-03-03T23:06:45.054Z,24.05
2023-03-03T23:11:48.154Z,22.55
2023-03-03T23:16:48.888Z,21.67
2023-03-03T23:21:49.598Z,21.50
2023-03-03T23:26:56.755Z,22.15
2023-03-03T23:31:57.620Z,20.85
2023-03-03T23:36:58.450Z,23.10
2023-03-03T23:42:00.462Z,19.58
2023-03-03T23:47:01.133Z,22.08
2023-03-03T23:52:02.122Z,21.17
2023-03-03T23:57:04.241Z,19.83
